sensor_id;sensor_type;location;lat;lon;timestamp;temperature;humidity
11934;DHT22;6026;48.784;9.198;2022-12-10T00:02:20;1.30;99.90
11934;DHT22;6026;48.784;9.198;2022-12-10T00:04:45;1.30;99.90
11934;DHT22;6026;48.784;9.198;2022-12-10T00:07:11;1.30;99.90
11934;DHT22;6026;48.784;9.198;2022-12-10T00:09:37;1.30;99.90
11934;DHT22;6026;48.784;9.198;2022-12-10T00:12:02;1.30;99.90
11934;DHT22;6026;48.784;9.198;2022-12-10T00:14:28;1.30;99.90
11934;DHT22;6026;48.784;9.198;2022-12-10T00:16:53;1.30;99.90
11934;DHT22;6026;48.784;9.198;2022-12-10T00:19:19;1.40;99.90
11934;DHT22;6026;48.784;9.198;2022-12-10T00:21:45;1.30;99.90
11934;DHT22;6026;48.784;9.198;2022-12-10T00:24:11;1.30;99.90
11934;DHT22;6026;48.784;9.198;2022-12-10T00:26:38;1.40;99.90
11934;DHT22;6026;48.784;9.198;2022-12-10T00:29:05;1.30;99.90
11934;DHT22;6026;48.784;9.198;2022-12-10T00:31:34;1.40;99.90
11934;DHT22;6026;48.784;9.198;2022-12-10T00:34:03;1.30;99.90
11934;DHT22;6026;48.784;9.198;2022-12-10T00:36:32;1.30;99.90
11934;DHT22;6026;48.784;9.198;2022-12-10T00:38:58;1.30;99.90
11934;DHT22;6026;48.784;9.198;2022-12-10T00:41:24;1.30;99.90
11934;DHT22;6026;48.784;9.198;2022-12-10T00:43:50;1.30;99.90
11934;DHT22;6026;48.784;9.198;2022-12-10T00:46:16;1.30;99.90
11934;DHT22;6026;48.784;9.198;2022-12-10T00:48:43;1.30;99.90
11934;DHT22;6026;48.784;9.198;2022-12-10T00:51:17;1.30;99.90
11934;DHT22;6026;48.784;9.198;2022-12-10T00:53:45;1.30;99.90
11934;DHT22;6026;48.784;9.198;2022-12-10T00:56:12;1.30;99.90
11934;DHT22;6026;48.784;9.198;2022-12-10T00:58:39;1.20;99.90
11934;DHT22;6026;48.784;9.198;2022-12-10T01:03:34;1.20;99.90
11934;DHT22;6026;48.784;9.198;2022-12-10T01:08:43;1.30;99.90
11934;DHT22;6026;48.784;9.198;2022-12-10T01:11:11;1.20;99.90
11934;DHT22;6026;48.784;9.198;2022-12-10T01:13:37;1.30;99.90
11934;DHT22;6026;48.784;9.198;2022-12-10T01:16:05;1.30;99.90
11934;DHT22;6026;48.784;9.198;2022-12-10T01:18:31;1.30;99.90
11934;DHT22;6026;48.784;9.198;2022-12-10T01:21:02;1.30;99.90
11934;DHT22;6026;48.784;9.198;2022-12-10T01:23:28;1.20;99.90
11934;DHT22;6026;48.784;9.198;2022-12-10T01:25:54;1.30;99.90
11934;DHT22;6026;48.784;9.198;2022-12-10T01:28:19;1.30;99.90
11934;DHT22;6026;48.784;9.198;2022-12-10T01:30:45;1.30;99.90
11934;DHT22;6026;48.784;9.198;2022-12-10T01:33:10;1.20;99.90
11934;DHT22;6026;48.784;9.198;2022-12-10T01:35:37;1.20;99.90
11934;DHT22;6026;48.784;9.198;2022-12-10T01:38:02;1.20;99.90
11934;DHT22;6026;48.784;9.198;2022-12-10T01:40:28;1.20;99.90
11934;DHT22;6026;48.784;9.198;2022-12-10T01:42:54;1.20;99.90
11934;DHT22;6026;48.784;9.198;2022-12-10T01:45:19;1.20;99.90
11934;DHT22;6026;48.784;9.198;2022-12-10T01:47:45;1.20;99.90
11934;DHT22;6026;48.784;9.198;2022-12-10T01:50:11;1.20;99.90
11934;DHT22;6026;48.784;9.198;2022-12-10T01:52:37;1.20;99.90
11934;DHT22;6026;48.784;9.198;2022-12-10T01:55:08;1.20;99.90
11934;DHT22;6026;48.784;9.198;2022-12-10T01:57:34;1.20;99.90
11934;DHT22;6026;48.784;9.198;2022-12-10T02:00:03;1.20;99.90
11934;DHT22;6026;48.784;9.198;2022-12-10T02:02:42;1.20;99.90
11934;DHT22;6026;48.784;9.198;2022-12-10T02:05:41;1.20;99.90
11934;DHT22;6026;48.784;9.198;2022-12-10T02:08:32;1.20;99.90
11934;DHT22;6026;48.784;9.198;2022-12-10T02:11:23;1.20;99.90
11934;DHT22;6026;48.784;9.198;2022-12-10T02:14:15;1.20;99.90
11934;DHT22;6026;48.784;9.198;2022-12-10T02:16:47;1.20;99.90
11934;DHT22;6026;48.784;9.198;2022-12-10T02:19:21;1.10;99.90
11934;DHT22;6026;48.784;9.198;2022-12-10T02:21:52;1.20;99.90
11934;DHT22;6026;48.784;9.198;2022-12-10T02:24:27;1.10;99.90
11934;DHT22;6026;48.784;9.198;2022-12-10T02:27:14;1.20;99.90
11934;DHT22;6026;48.784;9.198;2022-12-10T02:29:43;1.10;99.90
11934;DHT22;6026;48.784;9.198;2022-12-10T02:32:14;1.10;99.90
11934;DHT22;6026;48.784;9.198;2022-12-10T02:34:58;1.10;99.90
11934;DHT22;6026;48.784;9.198;2022-12-10T02:37:28;1.10;99.90
11934;DHT22;6026;48.784;9.198;2022-12-10T02:39:58;1.10;99.90
11934;DHT22;6026;48.784;9.198;2022-12-10T02:42:26;1.10;99.90
11934;DHT22;6026;48.784;9.198;2022-12-10T02:44:53;1.10;99.90
11934;DHT22;6026;48.784;9.198;2022-12-10T02:47:21;1.10;99.90
11934;DHT22;6026;48.784;9.198;2022-12-10T02:49:49;1.10;99.90
11934;DHT22;6026;48.784;9.198;2022-12-10T02:52:18;1.10;99.90
11934;DHT22;6026;48.784;9.198;2022-12-10T02:54:46;1.10;99.90
11934;DHT22;6026;48.784;9.198;2022-12-10T02:57:22;1.10;99.90
11934;DHT22;6026;48.784;9.198;2022-12-10T03:00:03;1.10;99.90
11934;DHT22;6026;48.784;9.198;2022-12-10T03:10:53;1.10;99.90
11934;DHT22;6026;48.784;9.198;2022-12-10T03:13:23;1.10;99.90
11934;DHT22;6026;48.784;9.198;2022-12-10T03:15:53;1.00;99.90
11934;DHT22;6026;48.784;9.198;2022-12-10T03:18:22;1.00;99.90
11934;DHT22;6026;48.784;9.198;2022-12-10T03:20:50;1.00;99.90
11934;DHT22;6026;48.784;9.198;2022-12-10T03:23:18;1.00;99.90
11934;DHT22;6026;48.784;9.198;2022-12-10T03:25:47;1.10;99.90
11934;DHT22;6026;48.784;9.198;2022-12-10T03:28:14;1.00;99.90
11934;DHT22;6026;48.784;9.198;2022-12-10T03:30:42;1.00;99.90
11934;DHT22;6026;48.784;9.198;2022-12-10T03:33:08;1.10;99.90
11934;DHT22;6026;48.784;9.198;2022-12-10T03:35:34;1.00;99.90
11934;DHT22;6026;48.784;9.198;2022-12-10T03:38:01;1.00;99.90
11934;DHT22;6026;48.784;9.198;2022-12-10T03:40:27;1.10;99.90
11934;DHT22;6026;48.784;9.198;2022-12-10T03:42:53;1.10;99.90
11934;DHT22;6026;48.784;9.198;2022-12-10T03:45:18;1.10;99.90
11934;DHT22;6026;48.784;9.198;2022-12-10T03:47:44;1.00;99.90
11934;DHT22;6026;48.784;9.198;2022-12-10T03:50:10;1.00;99.90
11934;DHT22;6026;48.784;9.198;2022-12-10T03:52:36;1.00;99.90
11934;DHT22;6026;48.784;9.198;2022-12-10T03:55:01;1.00;99.90
11934;DHT22;6026;48.784;9.198;2022-12-10T03:57:27;1.00;99.90
11934;DHT22;6026;48.784;9.198;2022-12-10T03:59:52;1.00;99.90
11934;DHT22;6026;48.784;9.198;2022-12-10T04:02:18;1.00;99.90
11934;DHT22;6026;48.784;9.198;2022-12-10T04:04:44;1.00;99.90
11934;DHT22;6026;48.784;9.198;2022-12-10T04:07:09;0.90;99.90
11934;DHT22;6026;48.784;9.198;2022-12-10T04:09:35;0.90;99.90
11934;DHT22;6026;48.784;9.198;2022-12-10T04:12:01;0.90;99.90
11934;DHT22;6026;48.784;9.198;2022-12-10T04:14:27;0.90;99.90
11934;DHT22;6026;48.784;9.198;2022-12-10T04:17:28;0.90;99.90
11934;DHT22;6026;48.784;9.198;2022-12-10T04:19:53;1.00;99.90
11934;DHT22;6026;48.784;9.198;2022-12-10T04:22:19;0.90;99.90
11934;DHT22;6026;48.784;9.198;2022-12-10T04:25:03;1.00;99.90
11934;DHT22;6026;48.784;9.198;2022-12-10T04:27:48;1.00;99.90
11934;DHT22;6026;48.784;9.198;2022-12-10T04:30:13;0.90;99.90
11934;DHT22;6026;48.784;9.198;2022-12-10T04:32:39;1.00;99.90
11934;DHT22;6026;48.784;9.198;2022-12-10T04:35:05;0.90;99.90
11934;DHT22;6026;48.784;9.198;2022-12-10T04:37:31;0.90;99.90
11934;DHT22;6026;48.784;9.198;2022-12-10T04:39:56;0.90;99.90
11934;DHT22;6026;48.784;9.198;2022-12-10T04:42:22;0.90;99.90
11934;DHT22;6026;48.784;9.198;2022-12-10T04:44:48;1.00;99.90
11934;DHT22;6026;48.784;9.198;2022-12-10T04:47:14;0.90;99.90
11934;DHT22;6026;48.784;9.198;2022-12-10T04:49:39;1.00;99.90
11934;DHT22;6026;48.784;9.198;2022-12-10T04:52:07;0.90;99.90
11934;DHT22;6026;48.784;9.198;2022-12-10T04:54:33;0.90;99.90
11934;DHT22;6026;48.784;9.198;2022-12-10T04:56:59;0.90;99.90
11934;DHT22;6026;48.784;9.198;2022-12-10T04:59:24;0.90;99.90
11934;DHT22;6026;48.784;9.198;2022-12-10T05:01:50;0.90;99.90
11934;DHT22;6026;48.784;9.198;2022-12-10T05:04:17;0.90;99.90
11934;DHT22;6026;48.784;9.198;2022-12-10T05:06:44;0.90;99.90
11934;DHT22;6026;48.784;9.198;2022-12-10T05:09:12;0.90;99.90
11934;DHT22;6026;48.784;9.198;2022-12-10T05:11:39;0.90;99.90
11934;DHT22;6026;48.784;9.198;2022-12-10T05:14:04;0.90;99.90
11934;DHT22;6026;48.784;9.198;2022-12-10T05:16:32;0.90;99.90
11934;DHT22;6026;48.784;9.198;2022-12-10T05:18:58;0.90;99.90
11934;DHT22;6026;48.784;9.198;2022-12-10T05:21:26;0.90;99.90
11934;DHT22;6026;48.784;9.198;2022-12-10T05:24:13;0.90;99.90
11934;DHT22;6026;48.784;9.198;2022-12-10T05:26:38;0.80;99.90
11934;DHT22;6026;48.784;9.198;2022-12-10T05:29:04;0.80;99.90
11934;DHT22;6026;48.784;9.198;2022-12-10T05:31:30;0.80;99.90
11934;DHT22;6026;48.784;9.198;2022-12-10T05:33:57;0.80;99.90
11934;DHT22;6026;48.784;9.198;2022-12-10T05:36:28;0.90;99.90
11934;DHT22;6026;48.784;9.198;2022-12-10T05:38:55;0.80;99.90
11934;DHT22;6026;48.784;9.198;2022-12-10T05:41:24;0.80;99.90
11934;DHT22;6026;48.784;9.198;2022-12-10T05:43:51;0.80;99.90
11934;DHT22;6026;48.784;9.198;2022-12-10T05:46:22;0.80;99.90
11934;DHT22;6026;48.784;9.198;2022-12-10T05:48:49;0.80;99.90
11934;DHT22;6026;48.784;9.198;2022-12-10T05:51:17;0.80;99.90
11934;DHT22;6026;48.784;9.198;2022-12-10T05:53:43;0.80;99.90
11934;DHT22;6026;48.784;9.198;2022-12-10T05:56:12;0.70;99.90
11934;DHT22;6026;48.784;9.198;2022-12-10T05:58:38;0.70;99.90
11934;DHT22;6026;48.784;9.198;2022-12-10T06:01:12;0.70;99.90
11934;DHT22;6026;48.784;9.198;2022-12-10T06:03:38;0.70;99.90
11934;DHT22;6026;48.784;9.198;2022-12-10T06:06:05;0.70;99.90
11934;DHT22;6026;48.784;9.198;2022-12-10T06:08:32;0.70;99.90
11934;DHT22;6026;48.784;9.198;2022-12-10T06:11:05;0.70;99.90
11934;DHT22;6026;48.784;9.198;2022-12-10T06:13:31;0.70;99.90
11934;DHT22;6026;48.784;9.198;2022-12-10T06:15:57;0.70;99.90
11934;DHT22;6026;48.784;9.198;2022-12-10T06:18:22;0.70;99.90
11934;DHT22;6026;48.784;9.198;2022-12-10T06:20:48;0.70;99.90
11934;DHT22;6026;48.784;9.198;2022-12-10T06:23:13;0.70;99.90
11934;DHT22;6026;48.784;9.198;2022-12-10T06:25:39;0.60;99.90
11934;DHT22;6026;48.784;9.198;2022-12-10T06:28:06;0.60;99.90
11934;DHT22;6026;48.784;9.198;2022-12-10T06:30:32;0.70;99.90
11934;DHT22;6026;48.784;9.198;2022-12-10T06:32:58;0.60;99.90
11934;DHT22;6026;48.784;9.198;2022-12-10T06:35:24;0.70;99.90
11934;DHT22;6026;48.784;9.198;2022-12-10T06:37:50;0.60;99.90
11934;DHT22;6026;48.784;9.198;2022-12-10T06:40:15;0.60;99.90
11934;DHT22;6026;48.784;9.198;2022-12-10T06:42:41;0.60;99.90
11934;DHT22;6026;48.784;9.198;2022-12-10T06:45:07;0.60;99.90
11934;DHT22;6026;48.784;9.198;2022-12-10T06:47:33;0.60;99.90
11934;DHT22;6026;48.784;9.198;2022-12-10T06:49:58;0.60;99.90
11934;DHT22;6026;48.784;9.198;2022-12-10T06:52:24;0.60;99.90
11934;DHT22;6026;48.784;9.198;2022-12-10T06:54:50;0.60;99.90
11934;DHT22;6026;48.784;9.198;2022-12-10T06:57:16;0.60;99.90
11934;DHT22;6026;48.784;9.198;2022-12-10T06:59:41;0.60;99.90
11934;DHT22;6026;48.784;9.198;2022-12-10T07:02:09;0.50;99.90
11934;DHT22;6026;48.784;9.198;2022-12-10T07:04:34;0.60;99.90
11934;DHT22;6026;48.784;9.198;2022-12-10T07:07:00;0.60;99.90
11934;DHT22;6026;48.784;9.198;2022-12-10T07:09:26;0.60;99.90
11934;DHT22;6026;48.784;9.198;2022-12-10T07:11:51;0.60;99.90
11934;DHT22;6026;48.784;9.198;2022-12-10T07:14:17;0.60;99.90
11934;DHT22;6026;48.784;9.198;2022-12-10T07:16:43;0.60;99.90
11934;DHT22;6026;48.784;9.198;2022-12-10T07:19:10;0.60;99.90
11934;DHT22;6026;48.784;9.198;2022-12-10T07:21:37;0.60;99.90
11934;DHT22;6026;48.784;9.198;2022-12-10T07:24:07;0.60;99.90
11934;DHT22;6026;48.784;9.198;2022-12-10T07:26:36;0.60;99.90
11934;DHT22;6026;48.784;9.198;2022-12-10T07:29:03;0.60;99.90
11934;DHT22;6026;48.784;9.198;2022-12-10T07:31:29;0.60;99.90
11934;DHT22;6026;48.784;9.198;2022-12-10T07:33:57;0.60;99.90
11934;DHT22;6026;48.784;9.198;2022-12-10T07:36:24;0.60;99.90
11934;DHT22;6026;48.784;9.198;2022-12-10T07:38:50;0.60;99.90
11934;DHT22;6026;48.784;9.198;2022-12-10T07:41:16;0.70;99.90
11934;DHT22;6026;48.784;9.198;2022-12-10T07:43:43;0.60;99.90
11934;DHT22;6026;48.784;9.198;2022-12-10T07:46:25;0.70;99.90
11934;DHT22;6026;48.784;9.198;2022-12-10T07:48:51;0.70;99.90
11934;DHT22;6026;48.784;9.198;2022-12-10T07:51:19;0.70;99.90
11934;DHT22;6026;48.784;9.198;2022-12-10T07:53:46;0.70;99.90
11934;DHT22;6026;48.784;9.198;2022-12-10T07:56:12;0.70;99.90
11934;DHT22;6026;48.784;9.198;2022-12-10T07:58:41;0.80;99.90
11934;DHT22;6026;48.784;9.198;2022-12-10T08:01:09;0.80;99.90
11934;DHT22;6026;48.784;9.198;2022-12-10T08:03:35;0.80;99.90
11934;DHT22;6026;48.784;9.198;2022-12-10T08:06:06;0.80;99.90
11934;DHT22;6026;48.784;9.198;2022-12-10T08:08:34;0.90;99.90
11934;DHT22;6026;48.784;9.198;2022-12-10T08:11:00;0.90;99.90
11934;DHT22;6026;48.784;9.198;2022-12-10T08:13:27;0.90;99.90
11934;DHT22;6026;48.784;9.198;2022-12-10T08:15:52;0.90;99.90
11934;DHT22;6026;48.784;9.198;2022-12-10T08:18:18;0.90;99.90
11934;DHT22;6026;48.784;9.198;2022-12-10T08:20:43;0.90;99.90
11934;DHT22;6026;48.784;9.198;2022-12-10T08:23:09;0.90;99.90
11934;DHT22;6026;48.784;9.198;2022-12-10T08:25:36;0.90;99.90
11934;DHT22;6026;48.784;9.198;2022-12-10T08:28:02;0.90;99.90
11934;DHT22;6026;48.784;9.198;2022-12-10T08:30:29;0.90;99.90
11934;DHT22;6026;48.784;9.198;2022-12-10T08:32:55;0.90;99.90
11934;DHT22;6026;48.784;9.198;2022-12-10T08:35:20;0.90;99.90
11934;DHT22;6026;48.784;9.198;2022-12-10T08:37:46;1.00;99.90
11934;DHT22;6026;48.784;9.198;2022-12-10T08:40:13;1.00;99.90
11934;DHT22;6026;48.784;9.198;2022-12-10T08:42:38;1.00;99.90
11934;DHT22;6026;48.784;9.198;2022-12-10T08:45:05;1.00;99.90
11934;DHT22;6026;48.784;9.198;2022-12-10T08:47:31;1.10;99.90
11934;DHT22;6026;48.784;9.198;2022-12-10T08:49:56;1.10;99.90
11934;DHT22;6026;48.784;9.198;2022-12-10T08:52:22;1.10;99.90
11934;DHT22;6026;48.784;9.198;2022-12-10T08:54:47;1.10;99.90
11934;DHT22;6026;48.784;9.198;2022-12-10T08:57:13;1.20;99.90
11934;DHT22;6026;48.784;9.198;2022-12-10T08:59:38;1.20;99.90
11934;DHT22;6026;48.784;9.198;2022-12-10T09:02:04;1.20;99.90
11934;DHT22;6026;48.784;9.198;2022-12-10T09:04:29;1.30;99.90
11934;DHT22;6026;48.784;9.198;2022-12-10T09:06:55;1.30;99.90
11934;DHT22;6026;48.784;9.198;2022-12-10T09:09:20;1.30;99.90
11934;DHT22;6026;48.784;9.198;2022-12-10T09:11:46;1.40;99.90
11934;DHT22;6026;48.784;9.198;2022-12-10T09:14:12;1.40;99.90
11934;DHT22;6026;48.784;9.198;2022-12-10T09:16:38;1.40;99.90
11934;DHT22;6026;48.784;9.198;2022-12-10T09:19:05;1.50;99.90
11934;DHT22;6026;48.784;9.198;2022-12-10T09:21:32;1.50;99.90
11934;DHT22;6026;48.784;9.198;2022-12-10T09:23:58;1.50;99.90
11934;DHT22;6026;48.784;9.198;2022-12-10T09:26:23;1.50;99.90
11934;DHT22;6026;48.784;9.198;2022-12-10T09:28:49;1.50;99.90
11934;DHT22;6026;48.784;9.198;2022-12-10T09:31:17;1.50;99.90
11934;DHT22;6026;48.784;9.198;2022-12-10T09:33:44;1.50;99.90
11934;DHT22;6026;48.784;9.198;2022-12-10T09:36:10;1.50;99.90
11934;DHT22;6026;48.784;9.198;2022-12-10T09:38:38;1.50;99.90
11934;DHT22;6026;48.784;9.198;2022-12-10T09:41:29;1.60;99.90
11934;DHT22;6026;48.784;9.198;2022-12-10T09:46:57;1.60;99.90
11934;DHT22;6026;48.784;9.198;2022-12-10T09:51:56;1.70;99.90
11934;DHT22;6026;48.784;9.198;2022-12-10T09:54:33;1.70;99.90
11934;DHT22;6026;48.784;9.198;2022-12-10T09:57:00;1.70;99.90
11934;DHT22;6026;48.784;9.198;2022-12-10T09:59:37;1.70;99.90
11934;DHT22;6026;48.784;9.198;2022-12-10T10:02:24;1.70;99.90
11934;DHT22;6026;48.784;9.198;2022-12-10T10:04:52;1.70;99.90
11934;DHT22;6026;48.784;9.198;2022-12-10T10:07:27;1.70;99.90
11934;DHT22;6026;48.784;9.198;2022-12-10T10:09:58;1.70;99.90
11934;DHT22;6026;48.784;9.198;2022-12-10T10:12:27;1.70;99.90
11934;DHT22;6026;48.784;9.198;2022-12-10T10:14:53;1.80;99.90
11934;DHT22;6026;48.784;9.198;2022-12-10T10:17:27;1.80;99.90
11934;DHT22;6026;48.784;9.198;2022-12-10T10:19:56;1.80;99.90
11934;DHT22;6026;48.784;9.198;2022-12-10T10:22:21;1.80;99.90
11934;DHT22;6026;48.784;9.198;2022-12-10T10:24:47;1.80;99.90
11934;DHT22;6026;48.784;9.198;2022-12-10T10:27:22;1.80;99.90
11934;DHT22;6026;48.784;9.198;2022-12-10T10:29:50;1.80;99.90
11934;DHT22;6026;48.784;9.198;2022-12-10T10:33:01;1.80;99.90
11934;DHT22;6026;48.784;9.198;2022-12-10T10:35:23;1.90;99.90
11934;DHT22;6026;48.784;9.198;2022-12-10T10:37:49;1.90;99.90
11934;DHT22;6026;48.784;9.198;2022-12-10T10:42:56;1.90;99.90
11934;DHT22;6026;48.784;9.198;2022-12-10T10:45:40;2.00;99.90
11934;DHT22;6026;48.784;9.198;2022-12-10T10:48:21;2.00;99.90
11934;DHT22;6026;48.784;9.198;2022-12-10T10:50:52;1.90;99.90
11934;DHT22;6026;48.784;9.198;2022-12-10T10:53:32;1.90;99.90
11934;DHT22;6026;48.784;9.198;2022-12-10T10:58:36;2.00;99.90
11934;DHT22;6026;48.784;9.198;2022-12-10T11:01:09;2.00;99.90
11934;DHT22;6026;48.784;9.198;2022-12-10T11:03:36;2.00;99.90
11934;DHT22;6026;48.784;9.198;2022-12-10T11:06:06;2.10;99.90
11934;DHT22;6026;48.784;9.198;2022-12-10T11:08:32;2.10;99.90
11934;DHT22;6026;48.784;9.198;2022-12-10T11:13:42;2.10;99.90
11934;DHT22;6026;48.784;9.198;2022-12-10T11:16:22;2.10;99.90
11934;DHT22;6026;48.784;9.198;2022-12-10T11:18:59;2.20;99.90
11934;DHT22;6026;48.784;9.198;2022-12-10T11:21:32;2.20;99.90
11934;DHT22;6026;48.784;9.198;2022-12-10T11:24:00;2.20;99.90
11934;DHT22;6026;48.784;9.198;2022-12-10T11:32:20;2.10;99.90
11934;DHT22;6026;48.784;9.198;2022-12-10T11:35:15;2.10;99.90
11934;DHT22;6026;48.784;9.198;2022-12-10T11:37:55;2.20;99.90
11934;DHT22;6026;48.784;9.198;2022-12-10T11:40:28;2.20;99.90
11934;DHT22;6026;48.784;9.198;2022-12-10T11:43:13;2.20;99.90
11934;DHT22;6026;48.784;9.198;2022-12-10T11:51:35;2.20;99.90
11934;DHT22;6026;48.784;9.198;2022-12-10T12:02:49;2.20;99.90
11934;DHT22;6026;48.784;9.198;2022-12-10T12:11:34;2.30;99.90
11934;DHT22;6026;48.784;9.198;2022-12-10T12:16:16;2.30;99.90
11934;DHT22;6026;48.784;9.198;2022-12-10T12:18:51;2.40;99.90
11934;DHT22;6026;48.784;9.198;2022-12-10T12:21:20;2.40;99.90
11934;DHT22;6026;48.784;9.198;2022-12-10T12:24:06;2.40;99.90
11934;DHT22;6026;48.784;9.198;2022-12-10T12:26:48;2.50;99.90
11934;DHT22;6026;48.784;9.198;2022-12-10T12:29:32;2.50;99.90
11934;DHT22;6026;48.784;9.198;2022-12-10T12:32:05;2.50;99.90
11934;DHT22;6026;48.784;9.198;2022-12-10T12:34:56;2.50;99.90
11934;DHT22;6026;48.784;9.198;2022-12-10T12:37:32;2.50;99.90
11934;DHT22;6026;48.784;9.198;2022-12-10T12:40:34;2.60;99.90
11934;DHT22;6026;48.784;9.198;2022-12-10T12:43:04;2.60;99.90
11934;DHT22;6026;48.784;9.198;2022-12-10T12:45:39;2.60;99.90
11934;DHT22;6026;48.784;9.198;2022-12-10T12:53:51;2.60;99.90
11934;DHT22;6026;48.784;9.198;2022-12-10T12:56:47;2.60;99.90
11934;DHT22;6026;48.784;9.198;2022-12-10T12:59:36;2.60;99.90
11934;DHT22;6026;48.784;9.198;2022-12-10T13:05:38;2.60;99.90
11934;DHT22;6026;48.784;9.198;2022-12-10T13:10:45;2.60;99.90
11934;DHT22;6026;48.784;9.198;2022-12-10T13:13:39;2.60;99.90
11934;DHT22;6026;48.784;9.198;2022-12-10T13:40:36;2.40;99.90
11934;DHT22;6026;48.784;9.198;2022-12-10T13:43:35;2.30;99.90
11934;DHT22;6026;48.784;9.198;2022-12-10T13:46:32;2.20;99.90
11934;DHT22;6026;48.784;9.198;2022-12-10T13:49:00;2.10;99.90
11934;DHT22;6026;48.784;9.198;2022-12-10T13:51:52;2.00;99.90
11934;DHT22;6026;48.784;9.198;2022-12-10T14:00:10;1.70;99.90
11934;DHT22;6026;48.784;9.198;2022-12-10T14:08:08;1.60;99.90
11934;DHT22;6026;48.784;9.198;2022-12-10T14:10:37;1.50;99.90
11934;DHT22;6026;48.784;9.198;2022-12-10T14:13:04;1.50;99.90
11934;DHT22;6026;48.784;9.198;2022-12-10T14:15:31;1.40;99.90
11934;DHT22;6026;48.784;9.198;2022-12-10T14:18:04;1.40;99.90
11934;DHT22;6026;48.784;9.198;2022-12-10T14:20:32;1.40;99.90
11934;DHT22;6026;48.784;9.198;2022-12-10T14:23:04;1.40;99.90
11934;DHT22;6026;48.784;9.198;2022-12-10T14:25:48;1.40;99.90
11934;DHT22;6026;48.784;9.198;2022-12-10T14:28:17;1.40;99.90
11934;DHT22;6026;48.784;9.198;2022-12-10T14:30:45;1.30;99.90
11934;DHT22;6026;48.784;9.198;2022-12-10T14:33:15;1.30;99.90
11934;DHT22;6026;48.784;9.198;2022-12-10T14:35:41;1.30;99.90
11934;DHT22;6026;48.784;9.198;2022-12-10T14:38:20;1.30;99.90
11934;DHT22;6026;48.784;9.198;2022-12-10T14:40:47;1.20;99.90
11934;DHT22;6026;48.784;9.198;2022-12-10T14:43:21;1.20;99.90
11934;DHT22;6026;48.784;9.198;2022-12-10T14:45:53;1.20;99.90
11934;DHT22;6026;48.784;9.198;2022-12-10T14:48:20;1.20;99.90
11934;DHT22;6026;48.784;9.198;2022-12-10T14:50:47;1.20;99.90
11934;DHT22;6026;48.784;9.198;2022-12-10T14:53:16;1.10;99.90
11934;DHT22;6026;48.784;9.198;2022-12-10T14:55:45;1.10;99.90
11934;DHT22;6026;48.784;9.198;2022-12-10T14:58:35;1.10;99.90
11934;DHT22;6026;48.784;9.198;2022-12-10T15:01:03;1.10;99.90
11934;DHT22;6026;48.784;9.198;2022-12-10T15:03:37;1.10;99.90
11934;DHT22;6026;48.784;9.198;2022-12-10T15:06:08;1.00;99.90
11934;DHT22;6026;48.784;9.198;2022-12-10T15:08:34;1.00;99.90
11934;DHT22;6026;48.784;9.198;2022-12-10T15:11:01;1.00;99.90
11934;DHT22;6026;48.784;9.198;2022-12-10T15:13:31;1.00;99.90
11934;DHT22;6026;48.784;9.198;2022-12-10T15:15:58;1.00;99.90
11934;DHT22;6026;48.784;9.198;2022-12-10T15:18:31;0.90;99.90
11934;DHT22;6026;48.784;9.198;2022-12-10T15:21:10;0.90;99.90
11934;DHT22;6026;48.784;9.198;2022-12-10T15:23:39;0.90;99.90
11934;DHT22;6026;48.784;9.198;2022-12-10T15:26:27;1.00;99.90
11934;DHT22;6026;48.784;9.198;2022-12-10T15:31:49;0.90;99.90
11934;DHT22;6026;48.784;9.198;2022-12-10T15:34:15;0.90;99.90
11934;DHT22;6026;48.784;9.198;2022-12-10T15:36:42;0.90;99.90
11934;DHT22;6026;48.784;9.198;2022-12-10T15:41:40;0.90;99.90
11934;DHT22;6026;48.784;9.198;2022-12-10T15:49:29;0.80;99.90
11934;DHT22;6026;48.784;9.198;2022-12-10T15:51:56;0.80;99.90
11934;DHT22;6026;48.784;9.198;2022-12-10T15:56:56;0.80;99.90
11934;DHT22;6026;48.784;9.198;2022-12-10T15:59:21;0.80;99.90
11934;DHT22;6026;48.784;9.198;2022-12-10T16:01:47;0.80;99.90
11934;DHT22;6026;48.784;9.198;2022-12-10T16:04:12;0.80;99.90
11934;DHT22;6026;48.784;9.198;2022-12-10T16:06:39;0.80;99.90
11934;DHT22;6026;48.784;9.198;2022-12-10T16:09:04;0.80;99.90
11934;DHT22;6026;48.784;9.198;2022-12-10T16:11:31;0.70;99.90
11934;DHT22;6026;48.784;9.198;2022-12-10T16:13:56;0.70;99.90
11934;DHT22;6026;48.784;9.198;2022-12-10T16:16:22;0.70;99.90
11934;DHT22;6026;48.784;9.198;2022-12-10T16:18:48;0.70;99.90
11934;DHT22;6026;48.784;9.198;2022-12-10T16:21:14;0.60;99.90
11934;DHT22;6026;48.784;9.198;2022-12-10T16:23:40;0.60;99.90
11934;DHT22;6026;48.784;9.198;2022-12-10T16:26:15;0.60;99.90
11934;DHT22;6026;48.784;9.198;2022-12-10T16:28:42;0.60;99.90
11934;DHT22;6026;48.784;9.198;2022-12-10T16:31:12;0.60;99.90
11934;DHT22;6026;48.784;9.198;2022-12-10T16:33:38;0.60;99.90
11934;DHT22;6026;48.784;9.198;2022-12-10T16:36:04;0.60;99.90
11934;DHT22;6026;48.784;9.198;2022-12-10T16:38:30;0.60;99.90
11934;DHT22;6026;48.784;9.198;2022-12-10T16:41:00;0.50;99.90
11934;DHT22;6026;48.784;9.198;2022-12-10T16:43:28;0.50;99.90
11934;DHT22;6026;48.784;9.198;2022-12-10T16:45:54;0.50;99.90
11934;DHT22;6026;48.784;9.198;2022-12-10T16:48:20;0.50;99.90
11934;DHT22;6026;48.784;9.198;2022-12-10T16:50:47;0.50;99.90
11934;DHT22;6026;48.784;9.198;2022-12-10T16:53:25;0.50;99.90
11934;DHT22;6026;48.784;9.198;2022-12-10T16:55:51;0.50;99.90
11934;DHT22;6026;48.784;9.198;2022-12-10T16:58:17;0.50;99.90
11934;DHT22;6026;48.784;9.198;2022-12-10T17:00:45;0.50;99.90
11934;DHT22;6026;48.784;9.198;2022-12-10T17:03:13;0.50;99.90
11934;DHT22;6026;48.784;9.198;2022-12-10T17:05:48;0.50;99.90
11934;DHT22;6026;48.784;9.198;2022-12-10T17:08:14;0.50;99.90
11934;DHT22;6026;48.784;9.198;2022-12-10T17:10:39;0.60;99.90
11934;DHT22;6026;48.784;9.198;2022-12-10T17:13:24;0.50;99.90
11934;DHT22;6026;48.784;9.198;2022-12-10T17:15:52;0.50;99.90
11934;DHT22;6026;48.784;9.198;2022-12-10T17:18:18;0.50;99.90
11934;DHT22;6026;48.784;9.198;2022-12-10T17:20:45;0.60;99.90
11934;DHT22;6026;48.784;9.198;2022-12-10T17:23:11;0.50;99.90
11934;DHT22;6026;48.784;9.198;2022-12-10T17:25:37;0.50;99.90
11934;DHT22;6026;48.784;9.198;2022-12-10T17:28:03;0.50;99.90
11934;DHT22;6026;48.784;9.198;2022-12-10T17:30:29;0.50;99.90
11934;DHT22;6026;48.784;9.198;2022-12-10T17:32:55;0.40;99.90
11934;DHT22;6026;48.784;9.198;2022-12-10T17:35:21;0.40;99.90
11934;DHT22;6026;48.784;9.198;2022-12-10T17:37:46;0.40;99.90
11934;DHT22;6026;48.784;9.198;2022-12-10T17:40:17;0.40;99.90
11934;DHT22;6026;48.784;9.198;2022-12-10T17:42:43;0.40;99.90
11934;DHT22;6026;48.784;9.198;2022-12-10T17:45:14;0.30;99.90
11934;DHT22;6026;48.784;9.198;2022-12-10T17:47:41;0.40;99.90
11934;DHT22;6026;48.784;9.198;2022-12-10T17:50:24;0.40;99.90
11934;DHT22;6026;48.784;9.198;2022-12-10T17:52:51;0.30;99.90
11934;DHT22;6026;48.784;9.198;2022-12-10T17:55:17;0.40;99.90
11934;DHT22;6026;48.784;9.198;2022-12-10T17:57:43;0.30;99.90
11934;DHT22;6026;48.784;9.198;2022-12-10T18:00:14;0.30;99.90
11934;DHT22;6026;48.784;9.198;2022-12-10T18:02:40;0.30;99.90
11934;DHT22;6026;48.784;9.198;2022-12-10T18:05:06;0.30;99.90
11934;DHT22;6026;48.784;9.198;2022-12-10T18:07:32;0.30;99.90
11934;DHT22;6026;48.784;9.198;2022-12-10T18:09:57;0.30;99.90
11934;DHT22;6026;48.784;9.198;2022-12-10T18:12:23;0.30;99.90
11934;DHT22;6026;48.784;9.198;2022-12-10T18:14:49;0.20;99.90